FAMM/MBD METAR and TAF weather

Enter ICAO airport designator
Station Type Date Time Source
FAMM METAR 2022/12/08 13:00 UTC NOAA

FAMM 081300Z 06013KT 9999 FEW040CB 27/15 Q1019


Station Type Date Time Source
FAMM Decoded METAR 2022/12/08 13:00 UTC NOAA

Mafikeng Intl. Ad, South Africa (FAMM) 25-47S 025-32E 1300M
Dec 08, 2022 - 08:00 AM EST / 2022.12.08 1300 UTC
Wind: from the ENE (060 degrees) at 15 MPH (13 KT):0
Visibility: greater than 7 mile(s):0
Sky conditions: mostly clear
Weather: Cumulonimbus clouds observed
Temperature: 80 F (27 C)
Dew Point: 59 F (15 C)
Relative Humidity: 47%
Pressure (altimeter): 30.09 in. Hg (1019 hPa)
ob: FAMM 081300Z 06013KT 9999 FEW040CB 27/15 Q1019
cycle: 13

Station Type Date Time Source
FAMM TAF 2021/06/04 04:45 UTC NOAA

TAF TAF FAMM 040440Z 0404/0418 VRB03KT CAVOK TX20/0412Z TN02/0405Z
FM040800 05008KT 9999 SCT040
BECMG 0410/0412 VRB03KT CAVOK

Example: see airport list